sensor_id;sensor_type;location;lat;lon;timestamp;pressure;altitude;pressure_sealevel;temperature;humidity
71567;BME280;59403;47.456;19.120;2022-07-06T00:00:03;100259.44;;;18.93;79.43
71567;BME280;59403;47.456;19.120;2022-07-06T00:02:30;100253.87;;;18.95;79.40
71567;BME280;59403;47.456;19.120;2022-07-06T00:04:58;100258.22;;;18.89;79.90
71567;BME280;59403;47.456;19.120;2022-07-06T00:07:25;100254.72;;;18.89;79.95
71567;BME280;59403;47.456;19.120;2022-07-06T00:09:52;100253.06;;;18.88;79.97
71567;BME280;59403;47.456;19.120;2022-07-06T00:12:19;100248.13;;;18.85;79.56
71567;BME280;59403;47.456;19.120;2022-07-06T00:14:46;100251.84;;;18.84;79.69
71567;BME280;59403;47.456;19.120;2022-07-06T00:17:13;100255.38;;;18.84;80.10
71567;BME280;59403;47.456;19.120;2022-07-06T00:19:40;100251.22;;;18.82;79.72
71567;BME280;59403;47.456;19.120;2022-07-06T00:22:08;100240.53;;;18.75;80.18
71567;BME280;59403;47.456;19.120;2022-07-06T00:24:35;100240.94;;;18.79;79.76
71567;BME280;59403;47.456;19.120;2022-07-06T00:27:02;100245.09;;;18.68;79.65
71567;BME280;59403;47.456;19.120;2022-07-06T00:29:29;100243.44;;;18.74;80.33
71567;BME280;59403;47.456;19.120;2022-07-06T00:31:57;100245.69;;;18.77;80.03
71567;BME280;59403;47.456;19.120;2022-07-06T00:34:24;100245.72;;;18.70;80.33
71567;BME280;59403;47.456;19.120;2022-07-06T00:36:51;100258.13;;;18.65;79.88
71567;BME280;59403;47.456;19.120;2022-07-06T00:39:19;100256.66;;;18.69;80.02
71567;BME280;59403;47.456;19.120;2022-07-06T00:41:47;100257.31;;;18.64;80.30
71567;BME280;59403;47.456;19.120;2022-07-06T00:44:14;100260.41;;;18.61;80.39
71567;BME280;59403;47.456;19.120;2022-07-06T00:46:41;100259.38;;;18.56;79.94
71567;BME280;59403;47.456;19.120;2022-07-06T00:49:08;100258.16;;;18.58;80.03
71567;BME280;59403;47.456;19.120;2022-07-06T00:51:56;100261.06;;;18.57;80.14
71567;BME280;59403;47.456;19.120;2022-07-06T00:54:25;100254.41;;;18.59;80.04
71567;BME280;59403;47.456;19.120;2022-07-06T00:56:52;100255.09;;;18.48;80.19
71567;BME280;59403;47.456;19.120;2022-07-06T00:59:20;100248.66;;;18.56;80.08
71567;BME280;59403;47.456;19.120;2022-07-06T01:04:25;100237.53;;;18.52;80.76
71567;BME280;59403;47.456;19.120;2022-07-06T01:06:56;100243.28;;;18.56;80.40
71567;BME280;59403;47.456;19.120;2022-07-06T01:09:25;100233.41;;;18.56;80.10
71567;BME280;59403;47.456;19.120;2022-07-06T01:11:52;100241.00;;;18.59;80.05
71567;BME280;59403;47.456;19.120;2022-07-06T01:14:20;100238.53;;;18.58;80.29
71567;BME280;59403;47.456;19.120;2022-07-06T01:16:48;100237.53;;;18.59;80.20
71567;BME280;59403;47.456;19.120;2022-07-06T01:19:15;100239.81;;;18.55;80.69
71567;BME280;59403;47.456;19.120;2022-07-06T01:21:43;100239.81;;;18.55;80.30
71567;BME280;59403;47.456;19.120;2022-07-06T01:24:10;100238.13;;;18.54;80.48
71567;BME280;59403;47.456;19.120;2022-07-06T01:26:38;100239.41;;;18.52;80.60
71567;BME280;59403;47.456;19.120;2022-07-06T01:29:05;100241.69;;;18.48;80.68
71567;BME280;59403;47.456;19.120;2022-07-06T01:31:31;100240.44;;;18.44;80.81
71567;BME280;59403;47.456;19.120;2022-07-06T01:33:58;100241.50;;;18.43;81.07
71567;BME280;59403;47.456;19.120;2022-07-06T01:36:25;100238.78;;;18.37;81.25
71567;BME280;59403;47.456;19.120;2022-07-06T01:38:55;100240.66;;;18.36;81.57
71567;BME280;59403;47.456;19.120;2022-07-06T01:41:23;100235.69;;;18.40;81.13
71567;BME280;59403;47.456;19.120;2022-07-06T01:43:51;100242.31;;;18.37;80.88
71567;BME280;59403;47.456;19.120;2022-07-06T01:46:17;100237.97;;;18.36;80.90
71567;BME280;59403;47.456;19.120;2022-07-06T01:48:45;100235.91;;;18.38;80.80
71567;BME280;59403;47.456;19.120;2022-07-06T01:51:12;100239.63;;;18.37;80.95
71567;BME280;59403;47.456;19.120;2022-07-06T01:53:39;100234.47;;;18.36;80.91
71567;BME280;59403;47.456;19.120;2022-07-06T01:56:08;100232.22;;;18.33;80.50
71567;BME280;59403;47.456;19.120;2022-07-06T01:58:36;100235.69;;;18.33;80.43
71567;BME280;59403;47.456;19.120;2022-07-06T02:01:07;100242.72;;;18.34;80.43
71567;BME280;59403;47.456;19.120;2022-07-06T02:03:34;100236.75;;;18.32;80.50
71567;BME280;59403;47.456;19.120;2022-07-06T02:06:01;100244.19;;;18.30;80.65
71567;BME280;59403;47.456;19.120;2022-07-06T02:08:27;100246.22;;;18.28;80.67
71567;BME280;59403;47.456;19.120;2022-07-06T02:10:55;100245.03;;;18.24;80.83
71567;BME280;59403;47.456;19.120;2022-07-06T02:13:23;100239.84;;;18.23;80.73
71567;BME280;59403;47.456;19.120;2022-07-06T02:15:51;100245.62;;;18.26;80.27
71567;BME280;59403;47.456;19.120;2022-07-06T02:18:17;100252.03;;;18.19;80.24
71567;BME280;59403;47.456;19.120;2022-07-06T02:20:45;100252.66;;;18.27;80.11
71567;BME280;59403;47.456;19.120;2022-07-06T02:23:12;100252.84;;;18.26;80.28
71567;BME280;59403;47.456;19.120;2022-07-06T02:25:39;100251.63;;;18.22;80.21
71567;BME280;59403;47.456;19.120;2022-07-06T02:28:06;100247.31;;;18.21;80.28
71567;BME280;59403;47.456;19.120;2022-07-06T02:30:34;100255.94;;;18.23;80.38
71567;BME280;59403;47.456;19.120;2022-07-06T02:33:02;100256.56;;;18.18;80.67
71567;BME280;59403;47.456;19.120;2022-07-06T02:35:29;100260.91;;;18.19;80.46
71567;BME280;59403;47.456;19.120;2022-07-06T02:37:56;100261.13;;;18.11;80.65
71567;BME280;59403;47.456;19.120;2022-07-06T02:40:22;100262.78;;;18.05;80.40
71567;BME280;59403;47.456;19.120;2022-07-06T02:42:50;100266.91;;;18.08;80.81
71567;BME280;59403;47.456;19.120;2022-07-06T02:45:16;100271.84;;;18.11;80.48
71567;BME280;59403;47.456;19.120;2022-07-06T02:47:45;100262.38;;;18.08;80.47
71567;BME280;59403;47.456;19.120;2022-07-06T02:50:12;100269.38;;;18.09;80.54
71567;BME280;59403;47.456;19.120;2022-07-06T02:52:39;100265.88;;;18.09;80.83
71567;BME280;59403;47.456;19.120;2022-07-06T02:55:06;100270.19;;;18.03;80.58
71567;BME280;59403;47.456;19.120;2022-07-06T02:57:34;100272.88;;;18.03;81.30
71567;BME280;59403;47.456;19.120;2022-07-06T03:00:01;100276.38;;;18.04;80.78
71567;BME280;59403;47.456;19.120;2022-07-06T03:02:28;100283.41;;;18.05;80.98
71567;BME280;59403;47.456;19.120;2022-07-06T03:04:56;100282.16;;;18.07;80.83
71567;BME280;59403;47.456;19.120;2022-07-06T03:07:23;100290.63;;;18.04;80.89
71567;BME280;59403;47.456;19.120;2022-07-06T03:09:50;100289.97;;;18.09;80.60
71567;BME280;59403;47.456;19.120;2022-07-06T03:12:17;100290.41;;;18.06;80.82
71567;BME280;59403;47.456;19.120;2022-07-06T03:14:44;100298.44;;;18.06;80.93
71567;BME280;59403;47.456;19.120;2022-07-06T03:17:11;100302.78;;;18.00;81.37
71567;BME280;59403;47.456;19.120;2022-07-06T03:19:37;100298.88;;;18.03;81.60
71567;BME280;59403;47.456;19.120;2022-07-06T03:22:06;100296.81;;;18.05;81.19
71567;BME280;59403;47.456;19.120;2022-07-06T03:24:33;100294.53;;;18.08;81.01
71567;BME280;59403;47.456;19.120;2022-07-06T03:27:00;100300.72;;;18.09;80.97
71567;BME280;59403;47.456;19.120;2022-07-06T03:29:27;100300.91;;;18.07;81.09
71567;BME280;59403;47.456;19.120;2022-07-06T03:31:54;100300.91;;;18.07;81.14
71567;BME280;59403;47.456;19.120;2022-07-06T03:34:20;100309.16;;;18.06;81.26
71567;BME280;59403;47.456;19.120;2022-07-06T03:36:47;100316.16;;;18.07;81.46
71567;BME280;59403;47.456;19.120;2022-07-06T03:39:16;100316.56;;;18.10;80.62
71567;BME280;59403;47.456;19.120;2022-07-06T03:41:42;100315.34;;;18.20;79.80
71567;BME280;59403;47.456;19.120;2022-07-06T03:44:09;100320.50;;;18.21;80.00
71567;BME280;59403;47.456;19.120;2022-07-06T03:46:36;100318.00;;;18.26;79.91
71567;BME280;59403;47.456;19.120;2022-07-06T03:49:03;100317.00;;;18.21;79.75
71567;BME280;59403;47.456;19.120;2022-07-06T03:51:30;100319.47;;;18.29;79.12
71567;BME280;59403;47.456;19.120;2022-07-06T03:53:57;100319.88;;;18.32;79.40
71567;BME280;59403;47.456;19.120;2022-07-06T03:56:25;100319.25;;;18.30;79.36
71567;BME280;59403;47.456;19.120;2022-07-06T03:58:55;100309.16;;;18.32;79.09
71567;BME280;59403;47.456;19.120;2022-07-06T04:01:23;100307.91;;;18.35;79.09
71567;BME280;59403;47.456;19.120;2022-07-06T04:03:50;100306.25;;;18.40;79.05
71567;BME280;59403;47.456;19.120;2022-07-06T04:06:17;100313.84;;;18.69;77.50
71567;BME280;59403;47.456;19.120;2022-07-06T04:08:44;100314.59;;;18.89;76.85
71567;BME280;59403;47.456;19.120;2022-07-06T04:11:11;100314.84;;;18.81;77.20
71567;BME280;59403;47.456;19.120;2022-07-06T04:13:40;100303.50;;;18.66;77.36
71567;BME280;59403;47.456;19.120;2022-07-06T04:16:07;100314.47;;;18.65;77.75
71567;BME280;59403;47.456;19.120;2022-07-06T04:18:34;100317.16;;;18.58;77.89
71567;BME280;59403;47.456;19.120;2022-07-06T04:21:01;100309.13;;;18.58;77.77
71567;BME280;59403;47.456;19.120;2022-07-06T04:23:29;100308.72;;;18.55;78.19
71567;BME280;59403;47.456;19.120;2022-07-06T04:25:56;100306.66;;;18.57;78.19
71567;BME280;59403;47.456;19.120;2022-07-06T04:28:22;100303.91;;;18.76;77.17
71567;BME280;59403;47.456;19.120;2022-07-06T04:30:51;100302.09;;;19.14;75.77
71567;BME280;59403;47.456;19.120;2022-07-06T04:33:19;100304.28;;;19.62;74.19
71567;BME280;59403;47.456;19.120;2022-07-06T04:35:46;100301.00;;;19.91;73.04
71567;BME280;59403;47.456;19.120;2022-07-06T04:38:13;100306.06;;;19.74;72.82
71567;BME280;59403;47.456;19.120;2022-07-06T04:40:40;100303.78;;;19.47;74.15
71567;BME280;59403;47.456;19.120;2022-07-06T04:43:07;100305.06;;;19.38;74.29
71567;BME280;59403;47.456;19.120;2022-07-06T04:45:34;100303.00;;;19.40;74.61
71567;BME280;59403;47.456;19.120;2022-07-06T04:48:02;100305.97;;;19.25;76.35
71567;BME280;59403;47.456;19.120;2022-07-06T04:50:29;100298.09;;;19.23;75.28
71567;BME280;59403;47.456;19.120;2022-07-06T04:52:57;100299.16;;;19.22;75.29
71567;BME280;59403;47.456;19.120;2022-07-06T04:55:24;100301.59;;;19.31;75.00
71567;BME280;59403;47.456;19.120;2022-07-06T04:57:51;100314.25;;;19.55;74.60
71567;BME280;59403;47.456;19.120;2022-07-06T05:00:18;100314.47;;;20.09;72.36
71567;BME280;59403;47.456;19.120;2022-07-06T05:02:46;100319.84;;;20.09;71.94
71567;BME280;59403;47.456;19.120;2022-07-06T05:05:14;100313.50;;;19.72;73.41
71567;BME280;59403;47.456;19.120;2022-07-06T05:07:41;100311.16;;;19.58;73.52
71567;BME280;59403;47.456;19.120;2022-07-06T05:10:09;100309.66;;;19.62;73.44
71567;BME280;59403;47.456;19.120;2022-07-06T05:12:37;100311.16;;;19.58;73.53
71567;BME280;59403;47.456;19.120;2022-07-06T05:15:04;100315.25;;;19.60;74.38
71567;BME280;59403;47.456;19.120;2022-07-06T05:17:31;100317.31;;;19.65;73.20
71567;BME280;59403;47.456;19.120;2022-07-06T05:19:58;100320.00;;;19.65;72.92
71567;BME280;59403;47.456;19.120;2022-07-06T05:22:27;100321.78;;;19.71;73.34
71567;BME280;59403;47.456;19.120;2022-07-06T05:24:54;100318.63;;;19.80;73.27
71567;BME280;59403;47.456;19.120;2022-07-06T05:27:21;100330.16;;;19.87;72.12
71567;BME280;59403;47.456;19.120;2022-07-06T05:29:47;100329.50;;;19.92;72.46
71567;BME280;59403;47.456;19.120;2022-07-06T05:32:14;100335.94;;;19.91;72.12
71567;BME280;59403;47.456;19.120;2022-07-06T05:34:41;100347.47;;;19.98;72.26
71567;BME280;59403;47.456;19.120;2022-07-06T05:37:08;100332.69;;;20.07;72.16
71567;BME280;59403;47.456;19.120;2022-07-06T05:39:37;100336.94;;;20.21;71.89
71567;BME280;59403;47.456;19.120;2022-07-06T05:42:04;100337.09;;;20.26;70.88
71567;BME280;59403;47.456;19.120;2022-07-06T05:44:32;100329.69;;;20.21;70.25
71567;BME280;59403;47.456;19.120;2022-07-06T05:46:59;100334.22;;;20.27;70.98
71567;BME280;59403;47.456;19.120;2022-07-06T05:49:39;100350.97;;;20.48;70.59
71567;BME280;59403;47.456;19.120;2022-07-06T05:52:24;100345.66;;;20.59;70.36
71567;BME280;59403;47.456;19.120;2022-07-06T05:54:52;100350.41;;;20.64;69.45
71567;BME280;59403;47.456;19.120;2022-07-06T05:57:19;100359.50;;;20.63;69.65
71567;BME280;59403;47.456;19.120;2022-07-06T05:59:46;100375.22;;;20.66;68.59
71567;BME280;59403;47.456;19.120;2022-07-06T06:02:13;100376.19;;;20.71;69.82
71567;BME280;59403;47.456;19.120;2022-07-06T06:04:40;100378.38;;;20.81;69.97
71567;BME280;59403;47.456;19.120;2022-07-06T06:07:07;100366.69;;;20.87;68.67
71567;BME280;59403;47.456;19.120;2022-07-06T06:09:34;100367.81;;;20.97;68.48
71567;BME280;59403;47.456;19.120;2022-07-06T06:12:03;100374.12;;;21.09;68.75
71567;BME280;59403;47.456;19.120;2022-07-06T06:14:30;100370.34;;;21.28;67.62
71567;BME280;59403;47.456;19.120;2022-07-06T06:16:57;100376.56;;;21.29;67.20
71567;BME280;59403;47.456;19.120;2022-07-06T06:19:24;100376.28;;;21.37;66.10
71567;BME280;59403;47.456;19.120;2022-07-06T06:21:51;100375.72;;;21.47;66.60
71567;BME280;59403;47.456;19.120;2022-07-06T06:24:18;100372.66;;;21.43;65.99
71567;BME280;59403;47.456;19.120;2022-07-06T06:26:45;100378.47;;;21.58;65.83
71567;BME280;59403;47.456;19.120;2022-07-06T06:29:13;100379.91;;;21.72;64.72
71567;BME280;59403;47.456;19.120;2022-07-06T06:31:40;100366.75;;;21.82;64.64
71567;BME280;59403;47.456;19.120;2022-07-06T06:34:09;100372.53;;;22.09;64.52
71567;BME280;59403;47.456;19.120;2022-07-06T06:36:36;100375.84;;;22.11;62.98
71567;BME280;59403;47.456;19.120;2022-07-06T06:39:03;100379.97;;;22.25;62.69
71567;BME280;59403;47.456;19.120;2022-07-06T06:41:29;100375.50;;;22.30;62.76
71567;BME280;59403;47.456;19.120;2022-07-06T06:43:56;100375.50;;;22.42;62.18
71567;BME280;59403;47.456;19.120;2022-07-06T06:46:25;100382.81;;;22.76;61.72
71567;BME280;59403;47.456;19.120;2022-07-06T06:48:52;100381.44;;;22.62;61.63
71567;BME280;59403;47.456;19.120;2022-07-06T06:51:19;100397.47;;;23.03;61.22
71567;BME280;59403;47.456;19.120;2022-07-06T06:53:46;100393.09;;;23.02;60.03
71567;BME280;59403;47.456;19.120;2022-07-06T06:56:13;100405.22;;;23.00;59.62
71567;BME280;59403;47.456;19.120;2022-07-06T06:58:40;100404.84;;;23.31;59.21
71567;BME280;59403;47.456;19.120;2022-07-06T07:01:08;100417.16;;;23.67;58.54
71567;BME280;59403;47.456;19.120;2022-07-06T07:03:36;100399.69;;;23.57;58.60
71567;BME280;59403;47.456;19.120;2022-07-06T07:06:03;100406.06;;;23.96;57.30
71567;BME280;59403;47.456;19.120;2022-07-06T07:08:30;100416.22;;;23.89;57.59
71567;BME280;59403;47.456;19.120;2022-07-06T07:10:57;100388.19;;;23.79;57.02
71567;BME280;59403;47.456;19.120;2022-07-06T07:13:24;100403.69;;;24.11;56.87
71567;BME280;59403;47.456;19.120;2022-07-06T07:15:51;100410.09;;;24.22;56.68
71567;BME280;59403;47.456;19.120;2022-07-06T07:18:18;100409.03;;;23.95;54.74
71567;BME280;59403;47.456;19.120;2022-07-06T07:20:46;100416.87;;;24.24;56.02
71567;BME280;59403;47.456;19.120;2022-07-06T07:23:13;100418.19;;;24.38;55.99
71567;BME280;59403;47.456;19.120;2022-07-06T07:25:40;100420.75;;;24.28;54.94
71567;BME280;59403;47.456;19.120;2022-07-06T07:28:07;100420.28;;;24.81;54.78
71567;BME280;59403;47.456;19.120;2022-07-06T07:30:34;100412.69;;;24.83;54.08
71567;BME280;59403;47.456;19.120;2022-07-06T07:33:01;100414.56;;;24.66;54.28
71567;BME280;59403;47.456;19.120;2022-07-06T07:35:28;100412.09;;;24.98;54.15
71567;BME280;59403;47.456;19.120;2022-07-06T07:37:56;100410.94;;;24.94;53.60
71567;BME280;59403;47.456;19.120;2022-07-06T07:40:23;100415.00;;;24.58;53.92
71567;BME280;59403;47.456;19.120;2022-07-06T07:42:50;100414.81;;;24.98;54.18
71567;BME280;59403;47.456;19.120;2022-07-06T07:45:17;100423.66;;;25.31;54.00
71567;BME280;59403;47.456;19.120;2022-07-06T07:47:44;100428.09;;;25.37;52.97
71567;BME280;59403;47.456;19.120;2022-07-06T07:50:11;100411.81;;;25.37;52.73
71567;BME280;59403;47.456;19.120;2022-07-06T07:52:38;100421.19;;;25.73;52.45
71567;BME280;59403;47.456;19.120;2022-07-06T07:55:07;100414.69;;;25.74;52.16
71567;BME280;59403;47.456;19.120;2022-07-06T07:57:34;100425.38;;;26.07;52.59
71567;BME280;59403;47.456;19.120;2022-07-06T08:00:01;100420.81;;;26.13;51.18
71567;BME280;59403;47.456;19.120;2022-07-06T08:02:28;100420.50;;;26.09;51.39
71567;BME280;59403;47.456;19.120;2022-07-06T08:04:55;100421.13;;;25.95;51.04
71567;BME280;59403;47.456;19.120;2022-07-06T08:07:22;100426.59;;;26.21;51.40
71567;BME280;59403;47.456;19.120;2022-07-06T08:09:49;100421.69;;;25.97;50.85
71567;BME280;59403;47.456;19.120;2022-07-06T08:12:17;100421.38;;;26.15;50.90
71567;BME280;59403;47.456;19.120;2022-07-06T08:14:44;100425.59;;;26.32;51.83
71567;BME280;59403;47.456;19.120;2022-07-06T08:17:11;100429.50;;;26.15;50.57
71567;BME280;59403;47.456;19.120;2022-07-06T08:19:38;100417.56;;;26.16;49.76
71567;BME280;59403;47.456;19.120;2022-07-06T08:22:05;100429.28;;;26.53;49.17
71567;BME280;59403;47.456;19.120;2022-07-06T08:24:33;100421.78;;;26.65;49.06
71567;BME280;59403;47.456;19.120;2022-07-06T08:27:00;100419.75;;;26.82;48.61
71567;BME280;59403;47.456;19.120;2022-07-06T08:29:30;100426.87;;;26.93;48.75
71567;BME280;59403;47.456;19.120;2022-07-06T08:31:57;100419.16;;;26.75;48.11
71567;BME280;59403;47.456;19.120;2022-07-06T08:34:24;100430.44;;;27.04;46.82
71567;BME280;59403;47.456;19.120;2022-07-06T08:36:51;100427.41;;;26.95;45.93
71567;BME280;59403;47.456;19.120;2022-07-06T08:39:18;100430.19;;;26.63;46.46
71567;BME280;59403;47.456;19.120;2022-07-06T08:41:47;100431.69;;;27.28;44.84
71567;BME280;59403;47.456;19.120;2022-07-06T08:44:15;100437.97;;;27.33;44.65
71567;BME280;59403;47.456;19.120;2022-07-06T08:46:44;100426.16;;;27.69;44.11
71567;BME280;59403;47.456;19.120;2022-07-06T08:49:13;100437.91;;;27.90;44.15
71567;BME280;59403;47.456;19.120;2022-07-06T08:51:41;100432.06;;;27.46;43.64
71567;BME280;59403;47.456;19.120;2022-07-06T08:54:08;100441.69;;;27.84;43.10
71567;BME280;59403;47.456;19.120;2022-07-06T08:56:37;100435.41;;;27.78;44.00
71567;BME280;59403;47.456;19.120;2022-07-06T08:59:04;100425.38;;;27.17;44.28
71567;BME280;59403;47.456;19.120;2022-07-06T09:01:35;100429.28;;;27.31;44.86
71567;BME280;59403;47.456;19.120;2022-07-06T09:04:05;100429.22;;;27.26;43.88
71567;BME280;59403;47.456;19.120;2022-07-06T09:06:33;100425.75;;;27.36;44.79
71567;BME280;59403;47.456;19.120;2022-07-06T09:09:05;100431.97;;;27.98;43.62
71567;BME280;59403;47.456;19.120;2022-07-06T09:11:32;100423.44;;;27.64;43.39
71567;BME280;59403;47.456;19.120;2022-07-06T09:13:59;100428.81;;;27.03;45.31
71567;BME280;59403;47.456;19.120;2022-07-06T09:16:27;100431.25;;;27.51;44.43
71567;BME280;59403;47.456;19.120;2022-07-06T09:18:55;100428.50;;;27.41;45.05
71567;BME280;59403;47.456;19.120;2022-07-06T09:21:25;100429.63;;;27.50;41.74
71567;BME280;59403;47.456;19.120;2022-07-06T09:23:53;100430.59;;;27.96;44.55
71567;BME280;59403;47.456;19.120;2022-07-06T09:26:21;100427.59;;;27.92;43.22
71567;BME280;59403;47.456;19.120;2022-07-06T09:28:48;100422.84;;;27.01;43.96
71567;BME280;59403;47.456;19.120;2022-07-06T09:31:15;100420.97;;;26.33;44.37
71567;BME280;59403;47.456;19.120;2022-07-06T09:33:53;100417.09;;;26.97;43.65
71567;BME280;59403;47.456;19.120;2022-07-06T09:36:37;100426.59;;;27.41;43.16
71567;BME280;59403;47.456;19.120;2022-07-06T09:39:15;100417.44;;;27.72;43.96
71567;BME280;59403;47.456;19.120;2022-07-06T09:41:41;100418.62;;;28.12;43.02
71567;BME280;59403;47.456;19.120;2022-07-06T09:44:09;100417.50;;;27.98;42.39
71567;BME280;59403;47.456;19.120;2022-07-06T09:46:39;100422.44;;;28.16;40.84
71567;BME280;59403;47.456;19.120;2022-07-06T09:49:07;100411.28;;;28.47;41.52
71567;BME280;59403;47.456;19.120;2022-07-06T09:51:37;100423.56;;;28.55;42.11
71567;BME280;59403;47.456;19.120;2022-07-06T09:54:06;100426.81;;;28.37;39.87
71567;BME280;59403;47.456;19.120;2022-07-06T09:56:38;100434.72;;;28.43;39.82
71567;BME280;59403;47.456;19.120;2022-07-06T09:59:08;100424.91;;;28.42;40.66
71567;BME280;59403;47.456;19.120;2022-07-06T10:01:35;100422.97;;;28.88;40.97
71567;BME280;59403;47.456;19.120;2022-07-06T10:04:03;100430.37;;;28.57;39.80
71567;BME280;59403;47.456;19.120;2022-07-06T10:06:30;100422.72;;;28.74;39.30
71567;BME280;59403;47.456;19.120;2022-07-06T10:08:59;100428.66;;;29.12;39.33
71567;BME280;59403;47.456;19.120;2022-07-06T10:11:28;100427.81;;;29.16;38.95
71567;BME280;59403;47.456;19.120;2022-07-06T10:13:56;100426.47;;;29.09;37.58
71567;BME280;59403;47.456;19.120;2022-07-06T10:16:23;100429.78;;;27.95;38.41
71567;BME280;59403;47.456;19.120;2022-07-06T10:18:51;100431.22;;;28.53;38.80
71567;BME280;59403;47.456;19.120;2022-07-06T10:21:21;100431.66;;;28.95;37.96
71567;BME280;59403;47.456;19.120;2022-07-06T10:23:49;100418.59;;;28.92;37.42
71567;BME280;59403;47.456;19.120;2022-07-06T10:26:18;100417.66;;;29.32;37.83
71567;BME280;59403;47.456;19.120;2022-07-06T10:28:47;100420.63;;;29.40;37.24
71567;BME280;59403;47.456;19.120;2022-07-06T10:31:16;100422.47;;;28.56;36.88
71567;BME280;59403;47.456;19.120;2022-07-06T10:33:45;100426.81;;;28.27;39.32
71567;BME280;59403;47.456;19.120;2022-07-06T10:36:12;100425.72;;;28.08;39.58
71567;BME280;59403;47.456;19.120;2022-07-06T10:38:40;100421.00;;;27.73;40.07
71567;BME280;59403;47.456;19.120;2022-07-06T10:41:08;100422.28;;;27.50;41.49
71567;BME280;59403;47.456;19.120;2022-07-06T10:43:37;100419.78;;;27.44;40.36
71567;BME280;59403;47.456;19.120;2022-07-06T10:46:08;100415.63;;;28.38;39.00
71567;BME280;59403;47.456;19.120;2022-07-06T10:48:36;100416.44;;;28.14;39.43
71567;BME280;59403;47.456;19.120;2022-07-06T10:51:04;100413.25;;;27.35;37.64
71567;BME280;59403;47.456;19.120;2022-07-06T10:53:33;100422.59;;;27.69;38.68
71567;BME280;59403;47.456;19.120;2022-07-06T10:56:02;100410.44;;;28.17;35.96
71567;BME280;59403;47.456;19.120;2022-07-06T10:58:49;100419.72;;;28.71;35.09
71567;BME280;59403;47.456;19.120;2022-07-06T11:01:17;100428.94;;;29.00;34.97
71567;BME280;59403;47.456;19.120;2022-07-06T11:03:45;100415.03;;;28.91;34.42
71567;BME280;59403;47.456;19.120;2022-07-06T11:06:15;100418.16;;;29.44;35.61
71567;BME280;59403;47.456;19.120;2022-07-06T11:08:53;100418.03;;;29.10;33.94
71567;BME280;59403;47.456;19.120;2022-07-06T11:11:22;100425.22;;;29.55;32.90
71567;BME280;59403;47.456;19.120;2022-07-06T11:14:00;100413.34;;;29.84;32.47
71567;BME280;59403;47.456;19.120;2022-07-06T11:16:29;100420.22;;;29.72;33.35
71567;BME280;59403;47.456;19.120;2022-07-06T11:19:09;100416.91;;;29.85;32.46
71567;BME280;59403;47.456;19.120;2022-07-06T11:21:43;100418.84;;;29.79;32.24
71567;BME280;59403;47.456;19.120;2022-07-06T11:24:12;100414.06;;;30.00;32.54
71567;BME280;59403;47.456;19.120;2022-07-06T11:26:41;100407.34;;;29.82;32.69
71567;BME280;59403;47.456;19.120;2022-07-06T11:29:10;100408.94;;;30.27;29.74
71567;BME280;59403;47.456;19.120;2022-07-06T11:31:39;100408.34;;;29.43;29.85
71567;BME280;59403;47.456;19.120;2022-07-06T11:34:08;100404.53;;;29.39;31.05
71567;BME280;59403;47.456;19.120;2022-07-06T11:36:35;100410.69;;;30.08;30.75
71567;BME280;59403;47.456;19.120;2022-07-06T11:39:03;100404.25;;;30.33;30.02
71567;BME280;59403;47.456;19.120;2022-07-06T11:41:31;100403.78;;;29.82;30.28
71567;BME280;59403;47.456;19.120;2022-07-06T11:43:58;100414.72;;;29.18;29.64
71567;BME280;59403;47.456;19.120;2022-07-06T11:46:28;100400.47;;;29.90;27.93
71567;BME280;59403;47.456;19.120;2022-07-06T11:48:56;100403.56;;;30.51;28.67
71567;BME280;59403;47.456;19.120;2022-07-06T11:51:24;100395.53;;;29.92;28.59
71567;BME280;59403;47.456;19.120;2022-07-06T11:53:53;100399.19;;;30.16;29.45
71567;BME280;59403;47.456;19.120;2022-07-06T11:56:21;100407.38;;;30.78;28.84
71567;BME280;59403;47.456;19.120;2022-07-06T11:58:51;100410.47;;;30.72;27.95
71567;BME280;59403;47.456;19.120;2022-07-06T12:01:18;100414.88;;;29.52;29.62
71567;BME280;59403;47.456;19.120;2022-07-06T12:03:47;100407.88;;;29.84;28.65
71567;BME280;59403;47.456;19.120;2022-07-06T12:06:16;100398.31;;;30.26;27.12
71567;BME280;59403;47.456;19.120;2022-07-06T12:08:46;100404.16;;;30.43;29.01
71567;BME280;59403;47.456;19.120;2022-07-06T12:11:24;100412.28;;;30.53;28.39
71567;BME280;59403;47.456;19.120;2022-07-06T12:13:53;100400.47;;;30.24;28.96
71567;BME280;59403;47.456;19.120;2022-07-06T12:16:20;100390.25;;;30.39;27.51
71567;BME280;59403;47.456;19.120;2022-07-06T12:18:51;100404.09;;;30.53;26.72
71567;BME280;59403;47.456;19.120;2022-07-06T12:21:19;100410.78;;;30.37;27.39
71567;BME280;59403;47.456;19.120;2022-07-06T12:23:49;100402.06;;;30.35;27.59
71567;BME280;59403;47.456;19.120;2022-07-06T12:26:17;100402.63;;;30.60;27.28
71567;BME280;59403;47.456;19.120;2022-07-06T12:28:47;100399.66;;;30.57;27.66
71567;BME280;59403;47.456;19.120;2022-07-06T12:31:32;100412.09;;;30.05;29.07
71567;BME280;59403;47.456;19.120;2022-07-06T12:34:01;100415.03;;;28.91;30.17
71567;BME280;59403;47.456;19.120;2022-07-06T12:36:30;100401.50;;;28.56;30.58
71567;BME280;59403;47.456;19.120;2022-07-06T12:38:57;100403.09;;;28.12;31.30
71567;BME280;59403;47.456;19.120;2022-07-06T12:41:30;100398.44;;;28.78;30.66
71567;BME280;59403;47.456;19.120;2022-07-06T12:44:06;100396.28;;;29.49;29.30
71567;BME280;59403;47.456;19.120;2022-07-06T12:46:35;100401.50;;;29.94;29.36